Time;durP1;ratioP1;P1;durP2;ratioP2;P2;SDS_P1;SDS_P2;PMS_P1;PMS_P2;Temp;Humidity;BMP_temperature;BMP_pressure;BME280_temperature;BME280_humidity;BME280_pressure;Samples;Min_cycle;Max_cycle;Signal;HPM_P1;HPM_P2
2024/02/16 00:01:11;;;;;;;1.95;0.77;;;11.90;1.00;;;;;;4913088;29;20059;-81
2024/02/16 00:03:37;;;;;;;2.58;0.50;;;11.90;1.00;;;;;;4936994;29;20054;-80
2024/02/16 00:06:04;;;;;;;0.65;0.65;;;11.90;1.00;;;;;;4949875;28;20048;-81
2024/02/16 00:08:30;;;;;;;0.20;0.17;;;11.90;1.00;;;;;;4939640;29;20530;-80
2024/02/16 00:10:56;;;;;;;0.20;0.20;;;11.90;1.00;;;;;;4943447;29;20038;-82
2024/02/16 00:13:22;;;;;;;0.15;0.15;;;11.80;1.00;;;;;;4949763;29;20497;-82
2024/02/16 00:15:48;;;;;;;1.13;0.50;;;11.80;1.00;;;;;;4938359;29;20048;-81
2024/02/16 00:18:16;;;;;;;1.45;0.85;;;11.80;1.00;;;;;;4922721;29;20047;-81
2024/02/16 00:20:42;;;;;;;0.20;0.20;;;11.80;1.00;;;;;;4937145;29;20047;-82
2024/02/16 00:23:09;;;;;;;0.32;0.32;;;11.90;1.00;;;;;;4924896;29;20050;-82
2024/02/16 00:25:36;;;;;;;1.15;0.95;;;11.90;1.00;;;;;;4942642;29;20043;-80
2024/02/16 00:28:03;;;;;;;0.65;0.65;;;11.90;1.00;;;;;;4946308;29;20051;-82
2024/02/16 00:30:29;;;;;;;1.55;0.57;;;12.00;1.00;;;;;;4931625;29;20035;-82
2024/02/16 00:32:55;;;;;;;0.20;0.20;;;12.00;1.00;;;;;;4936818;29;20039;-81
2024/02/16 00:35:21;;;;;;;0.30;0.28;;;12.00;1.00;;;;;;4922093;29;20048;-81
2024/02/16 00:37:49;;;;;;;0.98;0.57;;;12.00;1.00;;;;;;4942368;28;20042;-80
2024/02/16 00:40:15;;;;;;;0.15;0.13;;;12.00;1.00;;;;;;4933106;29;20048;-81
2024/02/16 00:42:42;;;;;;;0.43;0.43;;;12.00;1.00;;;;;;4944796;28;20065;-85
2024/02/16 00:45:08;;;;;;;0.45;0.45;;;12.00;1.00;;;;;;4952988;28;20042;-82
2024/02/16 00:47:35;;;;;;;1.85;1.08;;;12.00;1.00;;;;;;4921190;29;20039;-81
2024/02/16 00:50:03;;;;;;;0.40;0.40;;;12.00;1.00;;;;;;4944593;28;20053;-81
2024/02/16 00:52:29;;;;;;;0.47;0.35;;;12.10;1.00;;;;;;4932871;29;20069;-80
2024/02/16 00:54:55;;;;;;;1.08;0.85;;;12.00;1.00;;;;;;4912343;29;20039;-81
2024/02/16 00:57:22;;;;;;;0.40;0.40;;;12.10;1.00;;;;;;4921399;29;20051;-82
2024/02/16 00:59:48;;;;;;;0.63;0.57;;;12.00;1.00;;;;;;4920404;29;20400;-81
2024/02/16 01:02:16;;;;;;;1.08;1.00;;;12.00;1.00;;;;;;4929198;29;20051;-81
2024/02/16 01:04:43;;;;;;;0.50;0.50;;;12.00;1.00;;;;;;4908414;29;20070;-82
2024/02/16 01:07:09;;;;;;;0.50;0.50;;;12.00;1.00;;;;;;4945232;29;20034;-81
2024/02/16 01:09:36;;;;;;;1.05;0.95;;;12.00;1.00;;;;;;4932267;29;20035;-82
2024/02/16 01:12:02;;;;;;;0.35;0.30;;;12.00;1.00;;;;;;4934622;29;20039;-82
2024/02/16 01:14:28;;;;;;;0.10;0.10;;;12.00;1.00;;;;;;4921437;29;20481;-82
2024/02/16 01:16:55;;;;;;;0.20;0.20;;;12.00;1.00;;;;;;4922963;29;20047;-82
2024/02/16 01:19:21;;;;;;;0.30;0.30;;;11.90;1.00;;;;;;4933885;29;20058;-81
2024/02/16 01:21:52;;;;;;;0.30;0.20;;;11.90;1.00;;;;;;4927061;29;20048;-83
2024/02/16 01:24:18;;;;;;;0.47;0.47;;;11.90;1.00;;;;;;4922730;29;20036;-82
2024/02/16 01:26:44;;;;;;;0.20;0.20;;;11.90;1.00;;;;;;4933748;29;20388;-83
2024/02/16 01:29:11;;;;;;;0.30;0.30;;;11.80;1.00;;;;;;4922560;29;20043;-82
2024/02/16 01:31:37;;;;;;;0.20;0.20;;;11.80;1.00;;;;;;4951564;28;20043;-82
2024/02/16 01:34:03;;;;;;;1.13;0.38;;;11.80;1.00;;;;;;4934401;29;20047;-81
2024/02/16 01:36:29;;;;;;;0.52;0.38;;;11.80;1.00;;;;;;4911575;29;20039;-81
2024/02/16 01:38:55;;;;;;;0.50;0.50;;;11.70;1.00;;;;;;4939903;28;20031;-82
2024/02/16 01:41:21;;;;;;;0.30;0.30;;;11.70;1.00;;;;;;4932646;29;20039;-83
2024/02/16 01:43:47;;;;;;;0.32;0.30;;;11.60;1.00;;;;;;4934963;29;20043;-82
2024/02/16 01:46:14;;;;;;;0.25;0.25;;;11.60;1.00;;;;;;4936702;29;20035;-82
2024/02/16 01:48:40;;;;;;;0.25;0.25;;;11.60;1.00;;;;;;4926891;29;20047;-82
2024/02/16 01:51:08;;;;;;;0.22;0.20;;;11.60;1.00;;;;;;4929805;29;20465;-82
2024/02/16 01:53:36;;;;;;;0.55;0.55;;;11.60;1.00;;;;;;4927042;29;20054;-83
2024/02/16 01:56:03;;;;;;;0.63;0.55;;;11.50;1.00;;;;;;4943119;28;20043;-82
2024/02/16 01:58:30;;;;;;;0.20;0.20;;;11.50;1.00;;;;;;4936995;29;20468;-81
2024/02/16 02:00:57;;;;;;;0.13;0.13;;;11.50;1.00;;;;;;4935553;29;20484;-80
2024/02/16 02:03:23;;;;;;;0.63;0.63;;;11.50;1.00;;;;;;4934171;29;20465;-82
2024/02/16 02:05:50;;;;;;;0.10;0.10;;;11.50;1.00;;;;;;4928674;29;20035;-82
2024/02/16 02:08:17;;;;;;;0.40;0.40;;;11.50;1.00;;;;;;4942050;29;20043;-81
2024/02/16 02:10:44;;;;;;;0.52;0.52;;;11.50;1.00;;;;;;4920507;29;20035;-82
2024/02/16 02:13:10;;;;;;;0.30;0.30;;;11.50;1.00;;;;;;4950117;28;20385;-81
2024/02/16 02:15:36;;;;;;;1.05;0.40;;;11.50;1.00;;;;;;4947885;28;20038;-81
2024/02/16 02:18:02;;;;;;;0.45;0.45;;;11.50;1.00;;;;;;4936147;29;20035;-81
2024/02/16 02:20:29;;;;;;;0.57;0.57;;;11.40;1.00;;;;;;4951874;28;20038;-81
2024/02/16 02:22:55;;;;;;;0.10;0.10;;;11.50;1.00;;;;;;4952376;28;20381;-81
2024/02/16 02:25:21;;;;;;;0.50;0.30;;;11.40;1.00;;;;;;4935334;29;20040;-79
2024/02/16 02:27:47;;;;;;;0.20;0.20;;;11.40;1.00;;;;;;4928609;29;20107;-85
2024/02/16 02:30:13;;;;;;;0.43;0.40;;;11.40;1.00;;;;;;4947743;29;20043;-82
2024/02/16 02:32:42;;;;;;;0.30;0.30;;;11.40;1.00;;;;;;4940292;29;20031;-80
2024/02/16 02:35:08;;;;;;;0.57;0.57;;;11.40;1.00;;;;;;4929844;29;20344;-80
2024/02/16 02:37:35;;;;;;;0.63;0.63;;;11.40;1.00;;;;;;4918291;29;20039;-82
2024/02/16 02:40:02;;;;;;;0.25;0.25;;;11.40;1.00;;;;;;4937013;29;20050;-82
2024/02/16 02:42:29;;;;;;;0.30;0.30;;;11.40;1.00;;;;;;4933790;29;20051;-82
2024/02/16 02:44:55;;;;;;;0.70;0.68;;;11.50;1.00;;;;;;4943847;29;20038;-82
2024/02/16 02:47:21;;;;;;;2.17;0.88;;;11.40;1.00;;;;;;4949452;28;20035;-82
2024/02/16 02:49:47;;;;;;;0.30;0.30;;;11.40;1.00;;;;;;4932768;29;20055;-81
2024/02/16 02:52:14;;;;;;;0.15;0.15;;;11.40;1.00;;;;;;4926044;29;20039;-81
2024/02/16 02:54:40;;;;;;;2.05;0.90;;;11.40;1.00;;;;;;4935330;29;20047;-81
2024/02/16 02:57:06;;;;;;;0.35;0.30;;;11.40;1.00;;;;;;4951496;29;20040;-81
2024/02/16 02:59:33;;;;;;;0.10;0.10;;;11.50;1.00;;;;;;4925646;29;20039;-83
2024/02/16 03:01:59;;;;;;;0.10;0.10;;;11.50;1.00;;;;;;4925566;29;20051;-81
2024/02/16 03:04:25;;;;;;;0.30;0.30;;;11.50;1.00;;;;;;4937925;29;20051;-80
2024/02/16 03:06:52;;;;;;;1.00;0.43;;;11.50;1.00;;;;;;4948660;29;20040;-81
2024/02/16 03:09:18;;;;;;;0.55;0.32;;;11.50;1.00;;;;;;4948275;28;20032;-82
2024/02/16 03:11:44;;;;;;;0.68;0.32;;;11.50;1.00;;;;;;4933395;29;20047;-81
2024/02/16 03:14:11;;;;;;;0.20;0.20;;;11.40;1.00;;;;;;4914827;29;20392;-81
2024/02/16 03:16:37;;;;;;;0.82;0.75;;;11.40;1.00;;;;;;4930368;29;20040;-81
2024/02/16 03:19:06;;;;;;;0.57;0.50;;;11.40;1.00;;;;;;4948835;28;20377;-84
2024/02/16 03:21:32;;;;;;;1.80;0.73;;;11.40;1.00;;;;;;4937313;29;20039;-82
2024/02/16 03:23:58;;;;;;;0.45;0.20;;;11.40;1.00;;;;;;4935397;29;20055;-81
2024/02/16 03:26:24;;;;;;;0.10;0.10;;;11.40;1.00;;;;;;4947001;29;20036;-81
2024/02/16 03:28:52;;;;;;;0.52;0.52;;;11.40;1.00;;;;;;4933119;29;20040;-86
2024/02/16 03:31:20;;;;;;;0.52;0.52;;;11.30;1.00;;;;;;4930246;29;20388;-82
2024/02/16 03:33:47;;;;;;;0.13;0.13;;;11.30;1.00;;;;;;4938774;29;20048;-82
2024/02/16 03:36:14;;;;;;;0.40;0.40;;;11.30;1.00;;;;;;4956826;29;20035;-82
2024/02/16 03:38:44;;;;;;;1.02;0.40;;;11.30;1.00;;;;;;4924976;29;20050;-82
2024/02/16 03:41:15;;;;;;;0.80;0.57;;;11.30;1.00;;;;;;4930223;29;20040;-79
2024/02/16 03:43:42;;;;;;;1.17;0.47;;;11.20;1.00;;;;;;4939470;29;20278;-82
2024/02/16 03:46:09;;;;;;;0.40;0.32;;;11.20;1.00;;;;;;4938835;29;20036;-82
2024/02/16 03:48:35;;;;;;;0.90;0.85;;;11.10;1.20;;;;;;4930903;29;20047;-82
2024/02/16 03:51:02;;;;;;;0.43;0.43;;;11.00;7.90;;;;;;4939009;29;20039;-82
2024/02/16 03:53:29;;;;;;;0.22;0.22;;;11.00;12.70;;;;;;4947720;29;20052;-82
2024/02/16 03:55:55;;;;;;;1.23;0.63;;;10.90;19.10;;;;;;4926655;29;20036;-83
2024/02/16 03:58:22;;;;;;;1.65;0.88;;;10.80;24.10;;;;;;4927993;29;20505;-82
2024/02/16 04:00:49;;;;;;;1.98;0.63;;;10.80;32.30;;;;;;4947653;29;20039;-82
2024/02/16 04:03:16;;;;;;;0.60;0.60;;;10.70;33.10;;;;;;4935644;29;20039;-81
2024/02/16 04:05:43;;;;;;;0.55;0.30;;;10.70;35.50;;;;;;4928367;29;20055;-82
2024/02/16 04:08:09;;;;;;;0.10;0.10;;;10.70;38.70;;;;;;4920294;29;20393;-82
2024/02/16 04:10:35;;;;;;;0.47;0.35;;;10.60;38.70;;;;;;4953084;29;20027;-82
2024/02/16 04:13:02;;;;;;;0.13;0.13;;;10.60;40.00;;;;;;4915239;29;20412;-83
2024/02/16 04:15:29;;;;;;;0.20;0.20;;;10.50;43.00;;;;;;4938298;29;20043;-81
2024/02/16 04:17:55;;;;;;;0.20;0.20;;;10.50;44.70;;;;;;4951937;29;20465;-84
2024/02/16 04:20:22;;;;;;;0.20;0.20;;;10.50;45.30;;;;;;4928371;29;20043;-82
2024/02/16 04:22:48;;;;;;;0.30;0.30;;;10.40;51.00;;;;;;4947800;29;20032;-82
2024/02/16 04:25:14;;;;;;;0.57;0.57;;;10.40;62.30;;;;;;4947347;29;20560;-82
2024/02/16 04:27:40;;;;;;;0.25;0.25;;;10.40;66.80;;;;;;4942334;28;20469;-82
2024/02/16 04:30:07;;;;;;;0.30;0.30;;;10.40;70.80;;;;;;4911330;29;20413;-82
2024/02/16 04:32:33;;;;;;;0.45;0.45;;;10.30;80.60;;;;;;4937463;29;20039;-81
2024/02/16 04:34:59;;;;;;;0.57;0.57;;;10.40;88.70;;;;;;4946692;28;20146;-82
2024/02/16 04:37:26;;;;;;;0.15;0.10;;;10.40;91.80;;;;;;4942450;29;20032;-82
2024/02/16 04:39:52;;;;;;;0.20;0.20;;;10.40;95.60;;;;;;4919814;29;20054;-81
2024/02/16 04:42:18;;;;;;;0.30;0.30;;;10.30;99.90;;;;;;4945893;29;20022;-82
2024/02/16 04:44:44;;;;;;;1.55;0.95;;;10.30;99.90;;;;;;4945225;29;20027;-81
2024/02/16 04:47:11;;;;;;;1.27;0.70;;;10.20;99.90;;;;;;4945565;28;20036;-81
2024/02/16 04:49:37;;;;;;;1.65;0.95;;;10.20;99.90;;;;;;4937311;29;20055;-82
2024/02/16 04:52:04;;;;;;;1.75;0.52;;;10.10;99.90;;;;;;4944153;28;20035;-82
2024/02/16 04:54:30;;;;;;;0.65;0.65;;;10.10;99.90;;;;;;4921563;29;20048;-81
2024/02/16 04:56:56;;;;;;;0.30;0.30;;;10.10;99.90;;;;;;4931861;29;20040;-85
2024/02/16 04:59:23;;;;;;;1.55;1.17;;;10.10;99.90;;;;;;4937373;29;20134;-81
2024/02/16 05:01:49;;;;;;;0.85;0.75;;;10.00;99.90;;;;;;4948208;28;20035;-81
2024/02/16 05:04:17;;;;;;;0.47;0.40;;;10.20;99.90;;;;;;4923669;29;20047;-82
2024/02/16 05:06:46;;;;;;;0.10;0.10;;;10.20;99.90;;;;;;4938481;29;20047;-81
2024/02/16 05:09:16;;;;;;;0.30;0.30;;;10.20;98.20;;;;;;4944913;28;20050;-81
2024/02/16 05:11:43;;;;;;;1.38;0.90;;;10.20;96.70;;;;;;4939978;29;20031;-81
2024/02/16 05:14:11;;;;;;;0.20;0.20;;;10.20;99.90;;;;;;4948920;28;20404;-82
2024/02/16 05:16:42;;;;;;;0.68;0.43;;;10.10;99.90;;;;;;4936282;29;20039;-82
2024/02/16 05:19:08;;;;;;;0.82;0.80;;;10.00;99.90;;;;;;4939992;29;20378;-81
2024/02/16 05:21:35;;;;;;;1.85;1.27;;;9.90;99.90;;;;;;4909959;29;20040;-82
2024/02/16 05:24:01;;;;;;;7.22;2.85;;;9.90;99.90;;;;;;4925457;29;20049;-85
2024/02/16 05:26:28;;;;;;;0.63;0.63;;;9.90;99.90;;;;;;4936483;29;20493;-81
2024/02/16 05:28:54;;;;;;;0.35;0.30;;;9.90;99.90;;;;;;4924925;29;20035;-81
2024/02/16 05:31:20;;;;;;;0.73;0.73;;;9.90;99.90;;;;;;4936263;28;20039;-82
2024/02/16 05:33:51;;;;;;;0.10;0.10;;;9.80;99.90;;;;;;4922554;29;20055;-82
2024/02/16 05:36:20;;;;;;;0.57;0.57;;;9.80;99.90;;;;;;4927119;29;20047;-82
2024/02/16 05:38:49;;;;;;;0.75;0.75;;;9.80;99.90;;;;;;4933128;29;20043;-82
2024/02/16 05:41:17;;;;;;;15.02;0.90;;;9.80;99.90;;;;;;4933318;29;20035;-82
2024/02/16 05:43:44;;;;;;;0.57;0.57;;;9.80;99.90;;;;;;4922365;29;20400;-81
2024/02/16 05:46:15;;;;;;;0.20;0.20;;;9.80;99.90;;;;;;4941013;29;20062;-82
2024/02/16 05:48:42;;;;;;;2.45;1.25;;;9.80;99.90;;;;;;4925947;29;20047;-81
2024/02/16 05:51:09;;;;;;;0.57;0.50;;;9.80;99.90;;;;;;4923826;29;20397;-81
2024/02/16 05:53:35;;;;;;;0.38;0.32;;;9.80;99.90;;;;;;4938894;29;20054;-82
2024/02/16 05:56:01;;;;;;;0.45;0.40;;;9.80;99.90;;;;;;4925385;29;20046;-80
2024/02/16 05:58:29;;;;;;;0.10;0.10;;;9.90;99.90;;;;;;4913607;29;20050;-82
2024/02/16 06:00:55;;;;;;;0.22;0.22;;;9.90;99.90;;;;;;4946269;29;20070;-82
2024/02/16 06:03:21;;;;;;;0.40;0.40;;;9.90;98.40;;;;;;4940775;29;20038;-82
2024/02/16 06:05:48;;;;;;;0.63;0.50;;;9.90;97.20;;;;;;4941818;29;20035;-82
2024/02/16 06:08:17;;;;;;;0.20;0.20;;;9.90;92.90;;;;;;4930708;29;20067;-82
2024/02/16 06:10:44;;;;;;;1.10;1.08;;;9.80;93.00;;;;;;4934283;29;20039;-82
2024/02/16 06:13:10;;;;;;;0.35;0.32;;;9.90;93.30;;;;;;4934248;29;20043;-82
2024/02/16 06:15:37;;;;;;;0.30;0.30;;;9.80;96.40;;;;;;4919041;29;20047;-82
2024/02/16 06:18:04;;;;;;;0.10;0.10;;;9.70;98.60;;;;;;4942560;29;20034;-82
2024/02/16 06:20:30;;;;;;;0.20;0.20;;;9.70;99.90;;;;;;4935581;29;20043;-81
2024/02/16 06:22:57;;;;;;;0.63;0.47;;;9.70;99.90;;;;;;4925139;29;20043;-81
2024/02/16 06:25:23;;;;;;;1.33;0.75;;;9.60;99.90;;;;;;4933825;29;20499;-82
2024/02/16 06:27:50;;;;;;;0.17;0.17;;;9.70;99.90;;;;;;4943555;29;20039;-82
2024/02/16 06:30:16;;;;;;;0.63;0.30;;;9.60;99.90;;;;;;4933147;29;20036;-82
2024/02/16 06:32:42;;;;;;;0.20;0.20;;;9.70;99.90;;;;;;4944494;29;20043;-82
2024/02/16 06:35:08;;;;;;;2.50;0.93;;;9.60;99.90;;;;;;4924658;29;20028;-82
2024/02/16 06:37:35;;;;;;;1.15;1.05;;;9.60;99.90;;;;;;4932262;29;20043;-82
2024/02/16 06:40:01;;;;;;;0.90;0.90;;;9.70;99.90;;;;;;4943115;29;20396;-82
2024/02/16 06:42:27;;;;;;;1.45;0.70;;;9.70;99.90;;;;;;4935256;29;20035;-81
2024/02/16 06:44:53;;;;;;;1.25;0.80;;;9.70;99.90;;;;;;4930064;29;20050;-81
2024/02/16 06:47:20;;;;;;;1.08;0.68;;;9.80;97.00;;;;;;4931707;29;20050;-81
2024/02/16 06:49:46;;;;;;;0.20;0.20;;;9.90;84.60;;;;;;4946338;29;20036;-83
2024/02/16 06:52:12;;;;;;;0.50;0.50;;;9.90;71.90;;;;;;4953547;29;20046;-81
2024/02/16 06:54:38;;;;;;;2.03;0.70;;;10.00;61.70;;;;;;4932076;29;20051;-81
2024/02/16 06:57:05;;;;;;;0.38;0.38;;;10.00;51.50;;;;;;4937086;29;20047;-80
2024/02/16 06:59:31;;;;;;;1.10;0.88;;;10.10;39.10;;;;;;4939614;29;20055;-81
2024/02/16 07:01:57;;;;;;;1.27;0.35;;;10.20;26.00;;;;;;4924250;29;20499;-80
2024/02/16 07:04:23;;;;;;;0.17;0.17;;;10.30;18.40;;;;;;4949883;29;20046;-82
2024/02/16 07:06:50;;;;;;;0.35;0.30;;;10.40;5.80;;;;;;4944560;29;20042;-82
2024/02/16 07:09:16;;;;;;;0.20;0.20;;;10.40;1.00;;;;;;4928968;29;20035;-82
2024/02/16 07:11:46;;;;;;;0.65;0.50;;;10.50;1.00;;;;;;4943570;28;20044;-81
2024/02/16 07:14:13;;;;;;;0.32;0.30;;;10.50;1.00;;;;;;4923493;29;20070;-82
2024/02/16 07:16:39;;;;;;;1.08;0.57;;;10.60;1.00;;;;;;4932963;29;20032;-82
2024/02/16 07:19:05;;;;;;;1.23;0.80;;;10.60;1.00;;;;;;4928298;29;20070;-84
2024/02/16 07:21:31;;;;;;;0.40;0.32;;;10.80;1.00;;;;;;4928788;29;20032;-81
2024/02/16 07:23:58;;;;;;;0.73;0.73;;;10.90;1.00;;;;;;4936996;29;20035;-81
2024/02/16 07:26:24;;;;;;;0.20;0.20;;;10.90;1.00;;;;;;4946220;29;20107;-80
2024/02/16 07:28:51;;;;;;;1.00;0.68;;;11.00;1.00;;;;;;4938435;29;20047;-81
2024/02/16 07:31:17;;;;;;;4.07;0.93;;;11.00;1.00;;;;;;4941266;29;20383;-80
2024/02/16 07:33:43;;;;;;;1.23;0.95;;;11.10;1.00;;;;;;4917321;29;20055;-80
2024/02/16 07:36:10;;;;;;;0.30;0.30;;;11.10;1.00;;;;;;4936733;29;20046;-82
2024/02/16 07:38:36;;;;;;;0.40;0.40;;;11.10;1.00;;;;;;4914978;29;20048;-82
2024/02/16 07:41:02;;;;;;;0.30;0.30;;;11.20;1.00;;;;;;4922479;29;20047;-80
2024/02/16 07:43:28;;;;;;;0.30;0.30;;;11.20;1.00;;;;;;4952737;29;20062;-82
2024/02/16 07:45:55;;;;;;;0.93;0.90;;;11.20;1.00;;;;;;4932719;29;20039;-81
2024/02/16 07:48:21;;;;;;;0.35;0.35;;;11.20;1.00;;;;;;4957618;28;20488;-81
2024/02/16 07:50:50;;;;;;;1.02;0.93;;;11.20;1.00;;;;;;4940569;29;20039;-81
2024/02/16 07:53:16;;;;;;;1.38;0.95;;;11.30;1.00;;;;;;4936508;29;20457;-82
2024/02/16 07:55:42;;;;;;;0.73;0.73;;;11.30;1.00;;;;;;4906689;29;20532;-79
2024/02/16 07:58:09;;;;;;;1.73;1.38;;;11.30;1.00;;;;;;4931680;29;20032;-81
2024/02/16 08:00:35;;;;;;;0.82;0.65;;;11.40;1.00;;;;;;4928068;29;20043;-80
2024/02/16 08:03:02;;;;;;;0.50;0.50;;;11.50;1.00;;;;;;4940799;29;20040;-82
2024/02/16 08:05:28;;;;;;;0.10;0.10;;;11.60;1.00;;;;;;4938707;29;20050;-81
2024/02/16 08:07:55;;;;;;;0.13;0.13;;;11.70;1.00;;;;;;4954501;29;20050;-79
2024/02/16 08:10:22;;;;;;;0.55;0.47;;;11.80;99.90;;;;;;4923182;29;20039;-80
2024/02/16 08:12:49;;;;;;;0.55;0.55;;;11.90;99.90;;;;;;4942934;29;20047;-81
2024/02/16 08:15:22;;;;;;;0.30;0.30;;;11.80;99.90;;;;;;4934606;29;20412;-82
2024/02/16 08:17:49;;;;;;;3.97;2.08;;;11.90;99.90;;;;;;4927790;29;20051;-81
2024/02/16 08:20:17;;;;;;;0.28;0.25;;;11.90;99.90;;;;;;4953793;28;20357;-80
2024/02/16 08:22:43;;;;;;;1.30;1.20;;;12.00;99.90;;;;;;4939371;29;20476;-81
2024/02/16 08:25:10;;;;;;;0.98;0.68;;;12.10;99.90;;;;;;4946474;29;20047;-81
2024/02/16 08:27:37;;;;;;;0.93;0.77;;;12.20;99.90;;;;;;4934888;29;20047;-82
2024/02/16 08:30:05;;;;;;;1.17;1.08;;;12.20;99.90;;;;;;4931397;29;20032;-82
2024/02/16 08:32:31;;;;;;;0.50;0.50;;;12.40;99.90;;;;;;4934863;29;20051;-82
2024/02/16 08:34:58;;;;;;;0.35;0.30;;;12.50;99.90;;;;;;4923868;29;20035;-84
2024/02/16 08:37:25;;;;;;;0.73;0.73;;;12.50;99.90;;;;;;4927452;29;20043;-81
2024/02/16 08:39:52;;;;;;;0.43;0.43;;;12.70;99.90;;;;;;4934796;29;20040;-84
2024/02/16 08:42:18;;;;;;;0.30;0.30;;;12.80;99.90;;;;;;4922022;29;20062;-82
2024/02/16 08:44:44;;;;;;;0.50;0.50;;;12.90;99.90;;;;;;4935338;29;20070;-81
2024/02/16 08:47:10;;;;;;;0.30;0.30;;;12.90;99.90;;;;;;4905192;29;20048;-86
2024/02/16 08:49:38;;;;;;;0.90;0.82;;;13.00;99.90;;;;;;4930948;29;20046;-83
2024/02/16 08:52:06;;;;;;;0.90;0.90;;;13.10;99.90;;;;;;4920963;29;20047;-83
2024/02/16 08:54:32;;;;;;;0.43;0.43;;;13.20;99.90;;;;;;4942035;29;20863;-82
2024/02/16 08:56:59;;;;;;;1.27;0.43;;;13.20;99.90;;;;;;4951446;29;20089;-82
2024/02/16 08:59:26;;;;;;;0.30;0.30;;;13.20;99.90;;;;;;4952715;28;20035;-83
2024/02/16 09:01:52;;;;;;;0.88;0.47;;;13.20;99.90;;;;;;4928857;29;20492;-82
2024/02/16 09:04:18;;;;;;;0.50;0.50;;;13.30;99.90;;;;;;4942301;29;20035;-81
2024/02/16 09:06:45;;;;;;;0.43;0.43;;;13.30;99.90;;;;;;4925468;29;20027;-82
2024/02/16 09:09:11;;;;;;;0.30;0.30;;;13.40;99.90;;;;;;4941313;29;20058;-86
2024/02/16 09:11:38;;;;;;;0.57;0.57;;;13.60;99.90;;;;;;4939914;29;20043;-83
2024/02/16 09:14:04;;;;;;;0.20;0.20;;;13.70;99.90;;;;;;4944237;29;20058;-83
2024/02/16 09:16:30;;;;;;;0.70;0.60;;;13.90;99.90;;;;;;4934860;29;20031;-83
2024/02/16 09:18:58;;;;;;;0.75;0.75;;;14.00;91.20;;;;;;4921928;29;20493;-82
2024/02/16 09:21:27;;;;;;;1.38;0.60;;;14.20;81.00;;;;;;4930839;29;20043;-81
2024/02/16 09:23:53;;;;;;;1.83;0.70;;;14.50;13.10;;;;;;4931470;29;20047;-78
2024/02/16 09:26:20;;;;;;;0.20;0.20;;;14.50;1.00;;;;;;4944018;29;20393;-80
2024/02/16 09:28:46;;;;;;;1.38;0.93;;;14.70;18.60;;;;;;4935198;29;20046;-80
2024/02/16 09:31:15;;;;;;;0.57;0.57;;;15.00;1.00;;;;;;4923727;29;20035;-85
2024/02/16 09:33:42;;;;;;;0.68;0.57;;;15.30;1.00;;;;;;4950455;29;20370;-80
2024/02/16 09:36:09;;;;;;;0.90;0.90;;;15.20;1.00;;;;;;4920324;29;20046;-82
2024/02/16 09:38:35;;;;;;;0.65;0.65;;;15.20;1.00;;;;;;4924209;29;20023;-80
2024/02/16 09:41:02;;;;;;;0.60;0.57;;;15.00;1.00;;;;;;4924925;29;20055;-81
2024/02/16 09:43:29;;;;;;;0.43;0.43;;;15.30;1.00;;;;;;4933957;29;20050;-80
2024/02/16 09:45:57;;;;;;;0.50;0.40;;;15.30;1.00;;;;;;4934435;29;20055;-80
2024/02/16 09:48:26;;;;;;;2.28;1.63;;;15.30;1.00;;;;;;4918453;29;20043;-80
2024/02/16 09:50:58;;;;;;;0.40;0.40;;;15.20;1.00;;;;;;4953139;28;20039;-81
2024/02/16 09:53:27;;;;;;;0.52;0.52;;;15.10;1.00;;;;;;4932117;29;20047;-81
2024/02/16 09:55:53;;;;;;;1.10;0.50;;;14.90;1.00;;;;;;4918155;29;20047;-82
2024/02/16 09:58:20;;;;;;;1.17;0.43;;;14.90;1.00;;;;;;4920165;29;20039;-82
2024/02/16 10:00:51;;;;;;;1.02;0.93;;;14.90;1.00;;;;;;4935596;29;20040;-81
2024/02/16 10:03:32;;;;;;;4.40;0.80;;;14.90;1.00;;;;;;4929299;29;20054;-81
2024/02/16 10:06:11;;;;;;;0.47;0.47;;;15.20;1.00;;;;;;4935992;29;20470;-82
2024/02/16 10:08:52;;;;;;;0.50;0.50;;;15.50;1.00;;;;;;4909612;29;20066;-81
2024/02/16 10:11:21;;;;;;;0.50;0.50;;;15.70;1.00;;;;;;4946609;29;20354;-83
2024/02/16 10:13:56;;;;;;;0.55;0.30;;;16.00;1.00;;;;;;4954482;29;20045;-81
2024/02/16 10:16:22;;;;;;;0.10;0.10;;;16.20;1.00;;;;;;4930379;29;20381;-80
2024/02/16 10:18:48;;;;;;;0.32;0.32;;;16.30;1.00;;;;;;4936401;29;20039;-78
2024/02/16 10:21:27;;;;;;;0.20;0.20;;;16.40;1.00;;;;;;4922149;29;20044;-83
2024/02/16 10:24:09;;;;;;;0.25;0.25;;;16.40;1.00;;;;;;4936180;29;20059;-83
2024/02/16 10:26:40;;;;;;;0.10;0.10;;;16.60;1.00;;;;;;4909476;29;20442;-80
2024/02/16 10:29:08;;;;;;;;;;;16.80;1.00;;;;;;4942054;29;20039;-81
2024/02/16 10:31:34;;;;;;;0.45;0.45;;;16.90;1.00;;;;;;4945063;29;19914;-80
2024/02/16 10:34:05;;;;;;;0.20;0.20;;;16.80;1.00;;;;;;4910880;29;20055;-84
2024/02/16 10:36:32;;;;;;;;;;;16.60;1.00;;;;;;4934813;29;20032;-81
2024/02/16 10:38:59;;;;;;;0.20;0.20;;;16.50;1.00;;;;;;4936527;29;19910;-82
2024/02/16 10:41:29;;;;;;;1.10;0.30;;;16.40;1.00;;;;;;4919712;29;20044;-81
2024/02/16 10:43:56;;;;;;;0.93;0.82;;;16.40;1.00;;;;;;4914168;29;20047;-80
2024/02/16 10:46:24;;;;;;;0.75;0.75;;;16.40;1.00;;;;;;4922353;29;20035;-82
2024/02/16 10:48:50;;;;;;;0.47;0.30;;;16.40;1.00;;;;;;4926046;29;20071;-82
2024/02/16 10:51:31;;;;;;;3.55;1.13;;;16.50;1.00;;;;;;4941419;29;20032;-84
2024/02/16 10:53:59;;;;;;;;;;;16.50;1.00;;;;;;4931936;29;20043;-81
2024/02/16 10:56:37;;;;;;;0.50;0.40;;;16.60;1.00;;;;;;4932477;29;19915;-80
2024/02/16 10:59:05;;;;;;;0.63;0.38;;;16.60;1.00;;;;;;4931617;29;20405;-81
2024/02/16 11:01:44;;;;;;;0.55;0.52;;;16.60;1.00;;;;;;4928536;29;20035;-82
2024/02/16 11:04:18;;;;;;;0.10;0.10;;;16.70;1.00;;;;;;4927671;29;20040;-81
2024/02/16 11:07:00;;;;;;;0.60;0.32;;;16.80;1.00;;;;;;4935731;29;20275;-80
2024/02/16 11:09:33;;;;;;;0.40;0.40;;;16.80;1.00;;;;;;4945815;29;20039;-81
2024/02/16 11:12:04;;;;;;;0.82;0.82;;;17.00;1.00;;;;;;4928307;29;20046;-81
2024/02/16 11:14:39;;;;;;;0.52;0.47;;;17.10;1.00;;;;;;4944217;29;20035;-82
2024/02/16 11:17:12;;;;;;;0.38;0.38;;;17.20;1.00;;;;;;4926689;29;20031;-81
2024/02/16 11:19:46;;;;;;;1.35;1.23;;;17.40;1.00;;;;;;4915371;29;20039;-82
2024/02/16 11:22:17;;;;;;;0.28;0.28;;;17.60;1.00;;;;;;4941539;29;20042;-82
2024/02/16 11:24:46;;;;;;;0.43;0.43;;;17.70;1.00;;;;;;4939477;29;20063;-80
2024/02/16 11:27:12;;;;;;;0.20;0.20;;;17.80;1.00;;;;;;4916789;29;20047;-82
2024/02/16 11:29:40;;;;;;;0.20;0.20;;;17.90;1.00;;;;;;4934883;29;20034;-82
2024/02/16 11:32:07;;;;;;;0.40;0.40;;;17.70;1.00;;;;;;4933389;29;20047;-81
2024/02/16 11:34:34;;;;;;;0.95;0.45;;;17.80;1.00;;;;;;4944665;29;20043;-82
2024/02/16 11:37:02;;;;;;;1.75;0.35;;;17.80;1.00;;;;;;4938131;29;20036;-80
2024/02/16 11:39:35;;;;;;;0.68;0.68;;;18.00;1.00;;;;;;4921425;29;20043;-82
2024/02/16 11:42:05;;;;;;;1.27;1.02;;;18.10;1.00;;;;;;4941599;29;20046;-80
2024/02/16 11:44:33;;;;;;;0.50;0.50;;;18.00;1.00;;;;;;4945975;29;20039;-81
2024/02/16 11:47:01;;;;;;;0.20;0.20;;;18.10;1.00;;;;;;4945203;29;20075;-80
2024/02/16 11:49:30;;;;;;;0.10;0.10;;;18.10;1.00;;;;;;4922407;29;20062;-81
2024/02/16 11:51:59;;;;;;;0.22;0.22;;;18.20;1.00;;;;;;4930955;29;20036;-82
2024/02/16 11:54:25;;;;;;;0.35;0.35;;;18.20;99.90;;;;;;4934290;29;20059;-82
2024/02/16 11:56:52;;;;;;;0.20;0.20;;;18.10;99.90;;;;;;4945304;29;20042;-81
2024/02/16 11:59:19;;;;;;;0.20;0.20;;;18.00;1.00;;;;;;4942637;29;20035;-79
2024/02/16 12:01:57;;;;;;;0.40;0.40;;;17.90;1.00;;;;;;4920500;29;20044;-83
2024/02/16 12:04:24;;;;;;;0.15;0.15;;;17.90;1.00;;;;;;4948284;29;20047;-82
2024/02/16 12:06:57;;;;;;;0.10;0.10;;;17.80;99.90;;;;;;4929279;29;20039;-81
2024/02/16 12:09:24;;;;;;;0.88;0.50;;;17.50;1.00;;;;;;4917704;29;20052;-81
2024/02/16 12:11:53;;;;;;;0.20;0.20;;;17.30;1.00;;;;;;4947577;29;20029;-82
2024/02/16 12:14:22;;;;;;;0.10;0.10;;;17.30;1.00;;;;;;4938162;29;20054;-80
2024/02/16 12:16:49;;;;;;;0.20;0.20;;;17.20;1.00;;;;;;4936517;29;20366;-81
2024/02/16 12:19:18;;;;;;;0.28;0.28;;;17.20;1.00;;;;;;4923127;29;20392;-82
2024/02/16 12:21:44;;;;;;;0.40;0.40;;;17.30;1.00;;;;;;4930806;29;20055;-82
2024/02/16 12:24:10;;;;;;;1.60;0.85;;;17.50;1.00;;;;;;4930966;29;20388;-80
2024/02/16 12:26:37;;;;;;;0.20;0.20;;;17.60;1.00;;;;;;4933838;29;20047;-79
2024/02/16 12:29:03;;;;;;;0.95;0.65;;;17.60;1.00;;;;;;4937348;29;20047;-80
2024/02/16 12:31:30;;;;;;;2.38;0.20;;;17.70;1.00;;;;;;4920141;29;20056;-81
2024/02/16 12:33:57;;;;;;;0.15;0.15;;;17.90;1.00;;;;;;4936935;29;20148;-82
2024/02/16 12:36:23;;;;;;;4.63;1.08;;;17.90;99.90;;;;;;4931356;29;20023;-84
2024/02/16 12:38:50;;;;;;;0.10;0.10;;;18.20;1.00;;;;;;4947855;28;20038;-80
2024/02/16 12:41:16;;;;;;;3.30;1.05;;;18.40;99.90;;;;;;4944096;28;20036;-82
2024/02/16 12:43:42;;;;;;;0.40;0.40;;;18.40;99.90;;;;;;4934048;29;20043;-81
2024/02/16 12:46:09;;;;;;;0.25;0.25;;;18.50;99.90;;;;;;4934086;29;20035;-81
2024/02/16 12:48:35;;;;;;;0.10;0.10;;;18.50;99.90;;;;;;4936459;29;20078;-81
2024/02/16 12:51:01;;;;;;;0.17;0.17;;;18.50;99.90;;;;;;4945742;29;20034;-81
2024/02/16 12:53:30;;;;;;;0.20;0.20;;;18.60;99.90;;;;;;4925808;29;20433;-80
2024/02/16 12:55:56;;;;;;;1.27;0.80;;;18.70;99.90;;;;;;4937973;29;20051;-82